sensor_id;sensor_type;location;lat;lon;timestamp;pressure;altitude;pressure_sealevel;temperature;humidity
46392;BME280;32098;49.448;7.904;2022-07-24T00:00:47;98515.63;;;19.06;59.50
46392;BME280;32098;49.448;7.904;2022-07-24T00:03:13;98508.94;;;18.79;60.33
46392;BME280;32098;49.448;7.904;2022-07-24T00:05:40;98516.78;;;18.85;60.20
46392;BME280;32098;49.448;7.904;2022-07-24T00:08:07;98509.19;;;18.77;60.18
46392;BME280;32098;49.448;7.904;2022-07-24T00:10:33;98505.41;;;18.83;60.12
46392;BME280;32098;49.448;7.904;2022-07-24T00:13:00;98512.97;;;18.81;60.10
46392;BME280;32098;49.448;7.904;2022-07-24T00:15:26;98509.19;;;18.72;60.07
46392;BME280;32098;49.448;7.904;2022-07-24T00:17:53;98513.59;;;18.58;59.74
46392;BME280;32098;49.448;7.904;2022-07-24T00:20:19;98503.84;;;18.57;60.33
46392;BME280;32098;49.448;7.904;2022-07-24T00:22:46;98517.44;;;18.22;61.39
46392;BME280;32098;49.448;7.904;2022-07-24T00:25:12;98509.84;;;18.39;61.03
46392;BME280;32098;49.448;7.904;2022-07-24T00:27:39;98506.59;;;18.37;60.70
46392;BME280;32098;49.448;7.904;2022-07-24T00:30:06;98507.16;;;18.19;61.59
46392;BME280;32098;49.448;7.904;2022-07-24T00:32:33;98503.66;;;18.08;61.75
46392;BME280;32098;49.448;7.904;2022-07-24T00:34:59;98509.84;;;18.29;61.05
46392;BME280;32098;49.448;7.904;2022-07-24T00:37:26;98512.03;;;18.27;60.82
46392;BME280;32098;49.448;7.904;2022-07-24T00:39:53;98413.09;;;17.75;60.47
46392;BME280;32098;49.448;7.904;2022-07-24T00:42:20;98505.25;;;18.29;61.11
46392;BME280;32098;49.448;7.904;2022-07-24T00:44:46;98507.13;;;18.03;61.50
46392;BME280;32098;49.448;7.904;2022-07-24T00:47:13;98509.84;;;17.88;61.47
46392;BME280;32098;49.448;7.904;2022-07-24T00:49:40;98509.81;;;17.58;63.51
46392;BME280;32098;49.448;7.904;2022-07-24T00:52:06;98513.03;;;17.60;63.42
46392;BME280;32098;49.448;7.904;2022-07-24T00:54:33;98506.00;;;17.49;63.64
46392;BME280;32098;49.448;7.904;2022-07-24T00:56:59;98504.41;;;17.58;62.79
46392;BME280;32098;49.448;7.904;2022-07-24T00:59:26;98505.19;;;17.49;63.05
46392;BME280;32098;49.448;7.904;2022-07-24T01:01:52;98503.28;;;17.34;63.73
46392;BME280;32098;49.448;7.904;2022-07-24T01:04:19;98507.59;;;17.40;62.67
46392;BME280;32098;49.448;7.904;2022-07-24T01:06:47;98509.25;;;17.51;62.28
46392;BME280;32098;49.448;7.904;2022-07-24T01:09:14;98502.75;;;17.57;61.82
46392;BME280;32098;49.448;7.904;2022-07-24T01:11:41;98514.66;;;17.56;62.47
46392;BME280;32098;49.448;7.904;2022-07-24T01:14:09;98505.69;;;17.30;64.22
46392;BME280;32098;49.448;7.904;2022-07-24T01:16:37;98502.75;;;17.42;63.75
46392;BME280;32098;49.448;7.904;2022-07-24T01:19:04;98504.84;;;17.25;64.06
46392;BME280;32098;49.448;7.904;2022-07-24T01:21:31;98501.38;;;17.34;64.54
46392;BME280;32098;49.448;7.904;2022-07-24T01:23:58;98471.13;;;17.27;62.92
46392;BME280;32098;49.448;7.904;2022-07-24T01:26:24;98472.97;;;17.22;62.82
46392;BME280;32098;49.448;7.904;2022-07-24T01:28:51;98501.50;;;17.03;64.02
46392;BME280;32098;49.448;7.904;2022-07-24T01:31:18;98500.88;;;16.80;65.28
46392;BME280;32098;49.448;7.904;2022-07-24T01:33:44;98417.16;;;16.08;65.74
46392;BME280;32098;49.448;7.904;2022-07-24T01:36:11;98511.69;;;16.80;65.00
46392;BME280;32098;49.448;7.904;2022-07-24T01:38:37;98510.06;;;16.84;64.44
46392;BME280;32098;49.448;7.904;2022-07-24T01:41:04;98512.75;;;16.84;64.48
46392;BME280;32098;49.448;7.904;2022-07-24T01:43:30;98511.22;;;16.94;64.11
46392;BME280;32098;49.448;7.904;2022-07-24T01:45:57;98512.22;;;16.82;64.19
46392;BME280;32098;49.448;7.904;2022-07-24T01:48:24;98508.41;;;16.73;64.79
46392;BME280;32098;49.448;7.904;2022-07-24T01:50:50;98505.06;;;16.51;65.90
46392;BME280;32098;49.448;7.904;2022-07-24T01:53:17;98502.53;;;16.40;66.33
46392;BME280;32098;49.448;7.904;2022-07-24T01:55:44;98506.19;;;16.60;64.91
46392;BME280;32098;49.448;7.904;2022-07-24T01:58:10;98507.19;;;16.49;65.06
46392;BME280;32098;49.448;7.904;2022-07-24T02:00:36;98475.72;;;16.23;65.18
46392;BME280;32098;49.448;7.904;2022-07-24T02:03:03;98505.91;;;16.62;64.18
46392;BME280;32098;49.448;7.904;2022-07-24T02:05:29;98505.59;;;16.53;65.68
46392;BME280;32098;49.448;7.904;2022-07-24T02:07:58;98507.28;;;16.28;66.32
46392;BME280;32098;49.448;7.904;2022-07-24T02:10:26;98510.66;;;16.08;67.37
46392;BME280;32098;49.448;7.904;2022-07-24T02:12:55;98506.78;;;15.99;67.57
46392;BME280;32098;49.448;7.904;2022-07-24T02:15:24;98507.09;;;16.02;66.64
46392;BME280;32098;49.448;7.904;2022-07-24T02:17:53;98479.81;;;15.89;67.35
46392;BME280;32098;49.448;7.904;2022-07-24T02:20:19;98502.53;;;16.03;66.58
46392;BME280;32098;49.448;7.904;2022-07-24T02:22:46;98496.41;;;16.12;66.61
46392;BME280;32098;49.448;7.904;2022-07-24T02:25:13;98509.31;;;16.10;66.70
46392;BME280;32098;49.448;7.904;2022-07-24T02:27:40;98480.28;;;15.81;67.02
46392;BME280;32098;49.448;7.904;2022-07-24T02:30:10;98502.69;;;15.86;67.61
46392;BME280;32098;49.448;7.904;2022-07-24T02:32:37;98490.50;;;15.79;66.36
46392;BME280;32098;49.448;7.904;2022-07-24T02:35:05;98509.19;;;15.95;65.36
46392;BME280;32098;49.448;7.904;2022-07-24T02:37:36;98503.78;;;15.90;66.15
46392;BME280;32098;49.448;7.904;2022-07-24T02:40:04;98507.59;;;15.99;65.51
46392;BME280;32098;49.448;7.904;2022-07-24T02:42:31;98513.44;;;15.86;65.96
46392;BME280;32098;49.448;7.904;2022-07-24T02:44:58;98511.63;;;15.97;64.34
46392;BME280;32098;49.448;7.904;2022-07-24T02:47:24;98514.03;;;15.93;65.16
46392;BME280;32098;49.448;7.904;2022-07-24T02:49:51;98514.31;;;15.97;65.17
46392;BME280;32098;49.448;7.904;2022-07-24T02:52:17;98517.28;;;15.95;65.71
46392;BME280;32098;49.448;7.904;2022-07-24T02:54:44;98522.31;;;15.87;66.00
46392;BME280;32098;49.448;7.904;2022-07-24T02:57:10;98527.75;;;15.92;65.85
46392;BME280;32098;49.448;7.904;2022-07-24T02:59:37;98511.41;;;15.72;66.02
46392;BME280;32098;49.448;7.904;2022-07-24T03:02:03;98505.06;;;15.83;65.75
46392;BME280;32098;49.448;7.904;2022-07-24T03:04:30;98522.19;;;15.72;66.08
46392;BME280;32098;49.448;7.904;2022-07-24T03:06:57;98519.44;;;15.67;67.14
46392;BME280;32098;49.448;7.904;2022-07-24T03:09:23;98516.16;;;15.60;67.57
46392;BME280;32098;49.448;7.904;2022-07-24T03:11:50;98516.97;;;15.60;66.11
46392;BME280;32098;49.448;7.904;2022-07-24T03:14:17;98517.28;;;15.42;67.12
46392;BME280;32098;49.448;7.904;2022-07-24T03:16:43;98516.81;;;15.23;68.83
46392;BME280;32098;49.448;7.904;2022-07-24T03:19:10;98518.25;;;15.09;69.66
46392;BME280;32098;49.448;7.904;2022-07-24T03:21:36;98524.16;;;15.06;70.22
46392;BME280;32098;49.448;7.904;2022-07-24T03:24:14;98517.56;;;15.19;68.48
46392;BME280;32098;49.448;7.904;2022-07-24T03:26:40;98516.44;;;15.15;67.97
46392;BME280;32098;49.448;7.904;2022-07-24T03:29:07;98521.47;;;15.06;67.87
46392;BME280;32098;49.448;7.904;2022-07-24T03:31:34;98525.78;;;15.07;68.96
46392;BME280;32098;49.448;7.904;2022-07-24T03:34:01;98534.81;;;14.96;69.22
46392;BME280;32098;49.448;7.904;2022-07-24T03:36:28;98530.34;;;14.85;69.50
46392;BME280;32098;49.448;7.904;2022-07-24T03:38:54;98518.97;;;15.00;69.22
46392;BME280;32098;49.448;7.904;2022-07-24T03:41:21;98521.41;;;15.01;67.34
46392;BME280;32098;49.448;7.904;2022-07-24T03:43:49;98517.16;;;15.05;67.51
46392;BME280;32098;49.448;7.904;2022-07-24T03:46:16;98516.09;;;15.06;68.91
46392;BME280;32098;49.448;7.904;2022-07-24T03:48:43;98498.41;;;14.88;68.84
46392;BME280;32098;49.448;7.904;2022-07-24T03:51:10;98526.53;;;14.81;70.11
46392;BME280;32098;49.448;7.904;2022-07-24T03:53:37;98525.75;;;14.64;70.40
46392;BME280;32098;49.448;7.904;2022-07-24T03:56:08;98515.00;;;14.47;70.79
46392;BME280;32098;49.448;7.904;2022-07-24T03:58:35;98503.31;;;14.53;70.76
46392;BME280;32098;49.448;7.904;2022-07-24T04:01:06;98531.78;;;14.71;70.88
46392;BME280;32098;49.448;7.904;2022-07-24T04:03:35;98508.38;;;14.71;69.52
46392;BME280;32098;49.448;7.904;2022-07-24T04:06:02;98531.38;;;14.84;69.59
46392;BME280;32098;49.448;7.904;2022-07-24T04:08:30;98529.81;;;14.66;70.18
46392;BME280;32098;49.448;7.904;2022-07-24T04:10:57;98538.13;;;14.65;70.12
46392;BME280;32098;49.448;7.904;2022-07-24T04:13:28;98531.94;;;14.64;70.11
46392;BME280;32098;49.448;7.904;2022-07-24T04:15:56;98529.03;;;14.66;70.24
46392;BME280;32098;49.448;7.904;2022-07-24T04:18:23;98532.28;;;14.68;69.28
46392;BME280;32098;49.448;7.904;2022-07-24T04:20:50;98533.44;;;14.77;69.63
46392;BME280;32098;49.448;7.904;2022-07-24T04:23:17;98519.38;;;14.70;69.86
46392;BME280;32098;49.448;7.904;2022-07-24T04:25:45;98531.53;;;14.94;69.10
46392;BME280;32098;49.448;7.904;2022-07-24T04:28:12;98531.03;;;14.97;68.62
46392;BME280;32098;49.448;7.904;2022-07-24T04:30:38;98534.28;;;14.99;68.97
46392;BME280;32098;49.448;7.904;2022-07-24T04:33:05;98534.56;;;15.24;67.58
46392;BME280;32098;49.448;7.904;2022-07-24T04:35:31;98528.75;;;15.32;67.75
46392;BME280;32098;49.448;7.904;2022-07-24T04:37:58;98527.13;;;15.53;66.57
46392;BME280;32098;49.448;7.904;2022-07-24T04:40:24;98526.50;;;15.73;66.35
46392;BME280;32098;49.448;7.904;2022-07-24T04:42:51;98528.25;;;15.84;65.81
46392;BME280;32098;49.448;7.904;2022-07-24T04:45:17;98529.94;;;15.63;66.47
46392;BME280;32098;49.448;7.904;2022-07-24T04:47:44;98528.28;;;15.89;65.96
46392;BME280;32098;49.448;7.904;2022-07-24T04:50:11;98535.59;;;15.93;65.99
46392;BME280;32098;49.448;7.904;2022-07-24T04:52:40;98527.91;;;16.12;65.73
46392;BME280;32098;49.448;7.904;2022-07-24T04:55:07;98498.38;;;15.90;66.01
46392;BME280;32098;49.448;7.904;2022-07-24T04:57:34;98532.28;;;16.18;65.66
46392;BME280;32098;49.448;7.904;2022-07-24T05:00:01;98525.88;;;16.29;65.16
46392;BME280;32098;49.448;7.904;2022-07-24T05:02:28;98533.28;;;16.39;65.10
46392;BME280;32098;49.448;7.904;2022-07-24T05:04:54;98539.94;;;16.31;64.98
46392;BME280;32098;49.448;7.904;2022-07-24T05:07:21;98517.72;;;16.19;65.97
46392;BME280;32098;49.448;7.904;2022-07-24T05:09:47;98544.84;;;16.39;65.58
46392;BME280;32098;49.448;7.904;2022-07-24T05:12:14;98541.66;;;16.42;65.62
46392;BME280;32098;49.448;7.904;2022-07-24T05:14:41;98535.50;;;16.52;65.25
46392;BME280;32098;49.448;7.904;2022-07-24T05:17:08;98539.66;;;16.69;64.21
46392;BME280;32098;49.448;7.904;2022-07-24T05:19:35;98540.84;;;16.89;62.61
46392;BME280;32098;49.448;7.904;2022-07-24T05:22:02;98547.13;;;17.04;61.94
46392;BME280;32098;49.448;7.904;2022-07-24T05:24:29;98517.25;;;17.21;62.21
46392;BME280;32098;49.448;7.904;2022-07-24T05:26:55;98544.09;;;17.63;61.09
46392;BME280;32098;49.448;7.904;2022-07-24T05:29:22;98527.66;;;17.99;59.86
46392;BME280;32098;49.448;7.904;2022-07-24T05:31:49;98530.38;;;18.40;59.10
46392;BME280;32098;49.448;7.904;2022-07-24T05:34:15;98529.25;;;18.71;57.65
46392;BME280;32098;49.448;7.904;2022-07-24T05:36:42;98529.66;;;19.18;56.96
46392;BME280;32098;49.448;7.904;2022-07-24T05:39:08;98530.31;;;19.49;56.03
46392;BME280;32098;49.448;7.904;2022-07-24T05:41:35;98526.16;;;19.67;54.82
46392;BME280;32098;49.448;7.904;2022-07-24T05:44:01;98536.81;;;19.97;54.34
46392;BME280;32098;49.448;7.904;2022-07-24T05:46:28;98537.69;;;20.21;54.13
46392;BME280;32098;49.448;7.904;2022-07-24T05:48:54;98533.13;;;20.45;54.09
46392;BME280;32098;49.448;7.904;2022-07-24T05:51:21;98535.09;;;20.69;52.69
46392;BME280;32098;49.448;7.904;2022-07-24T05:53:48;98530.72;;;20.96;52.88
46392;BME280;32098;49.448;7.904;2022-07-24T05:56:14;98534.75;;;21.22;51.66
46392;BME280;32098;49.448;7.904;2022-07-24T05:58:41;98534.88;;;21.55;51.61
46392;BME280;32098;49.448;7.904;2022-07-24T06:01:08;98531.72;;;21.66;50.58
46392;BME280;32098;49.448;7.904;2022-07-24T06:03:35;98540.50;;;21.82;50.45
46392;BME280;32098;49.448;7.904;2022-07-24T06:06:04;98543.84;;;22.11;50.25
46392;BME280;32098;49.448;7.904;2022-07-24T06:08:37;98539.59;;;22.37;49.67
46392;BME280;32098;49.448;7.904;2022-07-24T06:11:04;98545.97;;;22.14;51.09
46392;BME280;32098;49.448;7.904;2022-07-24T06:13:31;98545.91;;;22.33;49.27
46392;BME280;32098;49.448;7.904;2022-07-24T06:15:58;98529.25;;;22.53;49.57
46392;BME280;32098;49.448;7.904;2022-07-24T06:18:24;98536.56;;;22.71;48.44
46392;BME280;32098;49.448;7.904;2022-07-24T06:20:51;98535.56;;;22.94;48.97
46392;BME280;32098;49.448;7.904;2022-07-24T06:23:18;98529.00;;;22.95;47.81
46392;BME280;32098;49.448;7.904;2022-07-24T06:25:47;98536.78;;;23.16;47.14
46392;BME280;32098;49.448;7.904;2022-07-24T06:28:14;98519.84;;;23.19;47.47
46392;BME280;32098;49.448;7.904;2022-07-24T06:30:40;98527.38;;;23.49;47.20
46392;BME280;32098;49.448;7.904;2022-07-24T06:33:07;98511.03;;;23.71;46.45
46392;BME280;32098;49.448;7.904;2022-07-24T06:35:34;98528.38;;;24.11;46.27
46392;BME280;32098;49.448;7.904;2022-07-24T06:38:00;98521.91;;;24.43;44.83
46392;BME280;32098;49.448;7.904;2022-07-24T06:40:28;98511.06;;;24.60;43.60
46392;BME280;32098;49.448;7.904;2022-07-24T06:42:55;98522.06;;;24.77;43.92
46392;BME280;32098;49.448;7.904;2022-07-24T06:45:21;98511.50;;;24.84;43.29
46392;BME280;32098;49.448;7.904;2022-07-24T06:47:49;98520.63;;;24.79;42.88
46392;BME280;32098;49.448;7.904;2022-07-24T06:50:15;98527.25;;;24.87;42.52
46392;BME280;32098;49.448;7.904;2022-07-24T06:52:42;98507.66;;;24.85;42.02
46392;BME280;32098;49.448;7.904;2022-07-24T06:55:09;98526.72;;;25.07;40.15
46392;BME280;32098;49.448;7.904;2022-07-24T06:57:35;98517.78;;;25.32;40.09
46392;BME280;32098;49.448;7.904;2022-07-24T07:00:07;98510.25;;;25.38;40.09
46392;BME280;32098;49.448;7.904;2022-07-24T07:02:35;98507.81;;;25.36;40.24
46392;BME280;32098;49.448;7.904;2022-07-24T07:05:06;98510.06;;;25.34;40.21
46392;BME280;32098;49.448;7.904;2022-07-24T07:07:35;98492.69;;;25.30;40.46
46392;BME280;32098;49.448;7.904;2022-07-24T07:10:02;98511.69;;;25.52;40.74
46392;BME280;32098;49.448;7.904;2022-07-24T07:12:29;98509.31;;;25.77;39.77
46392;BME280;32098;49.448;7.904;2022-07-24T07:14:56;98513.34;;;25.96;40.29
46392;BME280;32098;49.448;7.904;2022-07-24T07:17:25;98517.84;;;26.18;39.30
46392;BME280;32098;49.448;7.904;2022-07-24T07:19:52;98511.88;;;26.25;39.15
46392;BME280;32098;49.448;7.904;2022-07-24T07:22:19;98505.53;;;26.58;38.99
46392;BME280;32098;49.448;7.904;2022-07-24T07:24:45;98508.34;;;26.88;39.06
46392;BME280;32098;49.448;7.904;2022-07-24T07:27:12;98517.72;;;27.16;38.53
46392;BME280;32098;49.448;7.904;2022-07-24T07:29:38;98506.03;;;27.36;38.47
46392;BME280;32098;49.448;7.904;2022-07-24T07:32:05;98509.16;;;27.67;38.22
46392;BME280;32098;49.448;7.904;2022-07-24T07:34:31;98510.72;;;27.97;37.48
46392;BME280;32098;49.448;7.904;2022-07-24T07:36:58;98511.44;;;28.06;36.31
46392;BME280;32098;49.448;7.904;2022-07-24T07:39:24;98502.66;;;28.13;36.65
46392;BME280;32098;49.448;7.904;2022-07-24T07:41:51;98507.56;;;28.07;36.22
46392;BME280;32098;49.448;7.904;2022-07-24T07:44:18;98503.50;;;28.26;36.42
46392;BME280;32098;49.448;7.904;2022-07-24T07:46:45;98502.16;;;28.32;36.76
46392;BME280;32098;49.448;7.904;2022-07-24T07:49:11;98505.09;;;28.47;35.36
46392;BME280;32098;49.448;7.904;2022-07-24T07:51:41;98496.75;;;28.56;35.73
46392;BME280;32098;49.448;7.904;2022-07-24T07:54:09;98499.50;;;28.56;35.83
46392;BME280;32098;49.448;7.904;2022-07-24T07:56:35;98500.44;;;28.72;35.01
46392;BME280;32098;49.448;7.904;2022-07-24T07:59:02;98500.69;;;28.79;33.69
46392;BME280;32098;49.448;7.904;2022-07-24T08:01:29;98502.31;;;29.04;33.76
46392;BME280;32098;49.448;7.904;2022-07-24T08:03:56;98498.75;;;29.16;33.88
46392;BME280;32098;49.448;7.904;2022-07-24T08:06:22;98501.38;;;29.24;33.50
46392;BME280;32098;49.448;7.904;2022-07-24T08:08:51;98498.41;;;29.42;33.59
46392;BME280;32098;49.448;7.904;2022-07-24T08:11:18;98468.81;;;29.39;32.90
46392;BME280;32098;49.448;7.904;2022-07-24T08:13:44;98501.44;;;29.76;33.30
46392;BME280;32098;49.448;7.904;2022-07-24T08:16:12;98490.13;;;29.42;33.28
46392;BME280;32098;49.448;7.904;2022-07-24T08:18:38;98499.97;;;29.67;32.92
46392;BME280;32098;49.448;7.904;2022-07-24T08:21:05;98491.88;;;29.86;32.06
46392;BME280;32098;49.448;7.904;2022-07-24T08:23:32;98510.41;;;30.01;31.44
46392;BME280;32098;49.448;7.904;2022-07-24T08:25:58;98502.38;;;30.08;31.84
46392;BME280;32098;49.448;7.904;2022-07-24T08:28:25;98499.56;;;30.20;31.44
46392;BME280;32098;49.448;7.904;2022-07-24T08:30:51;98502.13;;;30.13;31.78
46392;BME280;32098;49.448;7.904;2022-07-24T08:33:18;98509.06;;;30.23;31.45
46392;BME280;32098;49.448;7.904;2022-07-24T08:35:45;98500.25;;;30.17;30.66
46392;BME280;32098;49.448;7.904;2022-07-24T08:38:11;98499.94;;;29.79;31.30
46392;BME280;32098;49.448;7.904;2022-07-24T08:40:38;98439.63;;;29.50;31.75
46392;BME280;32098;49.448;7.904;2022-07-24T08:43:06;98493.22;;;29.92;31.42
46392;BME280;32098;49.448;7.904;2022-07-24T08:45:35;98490.94;;;29.94;31.55
46392;BME280;32098;49.448;7.904;2022-07-24T08:48:04;98493.13;;;29.88;31.61
46392;BME280;32098;49.448;7.904;2022-07-24T08:50:32;98496.16;;;30.11;32.06
46392;BME280;32098;49.448;7.904;2022-07-24T08:52:58;98495.59;;;30.33;31.04
46392;BME280;32098;49.448;7.904;2022-07-24T08:55:27;98489.00;;;30.38;31.82
46392;BME280;32098;49.448;7.904;2022-07-24T08:58:01;98494.59;;;30.69;31.56
46392;BME280;32098;49.448;7.904;2022-07-24T09:00:29;98486.50;;;30.61;30.40
46392;BME280;32098;49.448;7.904;2022-07-24T09:02:56;98463.34;;;30.06;30.60
46392;BME280;32098;49.448;7.904;2022-07-24T09:05:23;98488.81;;;29.75;32.21
46392;BME280;32098;49.448;7.904;2022-07-24T09:08:05;98487.66;;;30.16;31.73
46392;BME280;32098;49.448;7.904;2022-07-24T09:10:32;98483.31;;;30.31;31.84
46392;BME280;32098;49.448;7.904;2022-07-24T09:13:12;98485.69;;;30.76;30.32
46392;BME280;32098;49.448;7.904;2022-07-24T09:15:48;98486.31;;;31.16;29.99
46392;BME280;32098;49.448;7.904;2022-07-24T09:18:26;98479.97;;;31.50;29.38
46392;BME280;32098;49.448;7.904;2022-07-24T09:20:54;98476.34;;;31.46;29.20
46392;BME280;32098;49.448;7.904;2022-07-24T09:23:21;98480.47;;;31.71;28.44
46392;BME280;32098;49.448;7.904;2022-07-24T09:25:52;98464.72;;;31.37;29.34
46392;BME280;32098;49.448;7.904;2022-07-24T09:28:19;98454.38;;;30.68;29.67
46392;BME280;32098;49.448;7.904;2022-07-24T09:30:47;98461.13;;;30.71;29.77
46392;BME280;32098;49.448;7.904;2022-07-24T09:33:18;98468.88;;;31.12;30.26
46392;BME280;32098;49.448;7.904;2022-07-24T09:35:50;98467.78;;;31.51;29.42
46392;BME280;32098;49.448;7.904;2022-07-24T09:38:24;98479.06;;;32.00;28.58
46392;BME280;32098;49.448;7.904;2022-07-24T09:40:52;98469.59;;;32.17;27.94
46392;BME280;32098;49.448;7.904;2022-07-24T09:43:25;98467.13;;;32.12;28.72
46392;BME280;32098;49.448;7.904;2022-07-24T09:48:34;98461.56;;;31.93;28.70
46392;BME280;32098;49.448;7.904;2022-07-24T09:51:09;98458.38;;;31.91;28.36
46392;BME280;32098;49.448;7.904;2022-07-24T09:53:36;98459.53;;;32.09;27.80
46392;BME280;32098;49.448;7.904;2022-07-24T09:56:15;98457.09;;;32.04;27.96
46392;BME280;32098;49.448;7.904;2022-07-24T10:01:18;98464.22;;;32.05;28.15
46392;BME280;32098;49.448;7.904;2022-07-24T10:03:46;98447.91;;;32.00;27.81
46392;BME280;32098;49.448;7.904;2022-07-24T10:06:18;98457.84;;;32.23;27.58
46392;BME280;32098;49.448;7.904;2022-07-24T10:08:47;98461.72;;;32.19;27.25
46392;BME280;32098;49.448;7.904;2022-07-24T10:11:15;98457.50;;;32.06;27.54
46392;BME280;32098;49.448;7.904;2022-07-24T10:13:42;98453.56;;;31.88;27.65
46392;BME280;32098;49.448;7.904;2022-07-24T10:19:00;98392.72;;;31.65;28.18
46392;BME280;32098;49.448;7.904;2022-07-24T10:21:30;98451.78;;;31.22;27.79
46392;BME280;32098;49.448;7.904;2022-07-24T10:26:34;98446.69;;;31.43;27.87
46392;BME280;32098;49.448;7.904;2022-07-24T10:29:14;98367.97;;;30.80;28.50
46392;BME280;32098;49.448;7.904;2022-07-24T10:31:45;98431.19;;;31.54;28.75
46392;BME280;32098;49.448;7.904;2022-07-24T10:34:32;98434.31;;;31.91;28.41
46392;BME280;32098;49.448;7.904;2022-07-24T10:39:36;98440.34;;;32.16;27.38
46392;BME280;32098;49.448;7.904;2022-07-24T10:42:06;98429.78;;;32.44;27.91
46392;BME280;32098;49.448;7.904;2022-07-24T10:44:32;98432.38;;;32.56;26.59
46392;BME280;32098;49.448;7.904;2022-07-24T10:49:41;98432.38;;;32.56;26.24
46392;BME280;32098;49.448;7.904;2022-07-24T10:52:21;98426.78;;;32.53;26.18
46392;BME280;32098;49.448;7.904;2022-07-24T10:58:12;98417.59;;;31.84;26.72
46392;BME280;32098;49.448;7.904;2022-07-24T11:00:44;98352.50;;;31.64;26.59
46392;BME280;32098;49.448;7.904;2022-07-24T11:03:20;98425.50;;;31.86;26.45
46392;BME280;32098;49.448;7.904;2022-07-24T11:06:09;98419.22;;;32.27;26.67
46392;BME280;32098;49.448;7.904;2022-07-24T11:08:51;98398.81;;;32.35;26.39
46392;BME280;32098;49.448;7.904;2022-07-24T11:11:20;98407.09;;;32.35;26.13
46392;BME280;32098;49.448;7.904;2022-07-24T11:13:49;98399.50;;;32.28;26.24
46392;BME280;32098;49.448;7.904;2022-07-24T11:16:17;98396.28;;;32.04;27.08
46392;BME280;32098;49.448;7.904;2022-07-24T11:21:31;98390.00;;;31.11;28.26
46392;BME280;32098;49.448;7.904;2022-07-24T11:26:54;98379.22;;;30.24;29.29
46392;BME280;32098;49.448;7.904;2022-07-24T11:31:54;98366.97;;;30.88;28.86
46392;BME280;32098;49.448;7.904;2022-07-24T11:34:21;98369.06;;;30.60;28.81
46392;BME280;32098;49.448;7.904;2022-07-24T11:36:49;98363.75;;;30.67;30.17
46392;BME280;32098;49.448;7.904;2022-07-24T11:39:19;98299.91;;;29.86;29.96
46392;BME280;32098;49.448;7.904;2022-07-24T11:41:51;98366.81;;;30.03;30.12
46392;BME280;32098;49.448;7.904;2022-07-24T11:44:24;98369.19;;;29.88;29.48
46392;BME280;32098;49.448;7.904;2022-07-24T11:46:51;98362.78;;;29.69;29.87
46392;BME280;32098;49.448;7.904;2022-07-24T11:49:18;98354.09;;;29.98;29.82
46392;BME280;32098;49.448;7.904;2022-07-24T11:51:47;98354.81;;;29.95;29.89
46392;BME280;32098;49.448;7.904;2022-07-24T11:54:20;98348.91;;;30.09;29.63
46392;BME280;32098;49.448;7.904;2022-07-24T11:56:47;98338.69;;;30.09;29.62
46392;BME280;32098;49.448;7.904;2022-07-24T11:59:26;98340.44;;;30.17;29.63
46392;BME280;32098;49.448;7.904;2022-07-24T12:02:04;98339.31;;;29.75;29.89
46392;BME280;32098;49.448;7.904;2022-07-24T12:04:32;98329.03;;;29.87;29.49
46392;BME280;32098;49.448;7.904;2022-07-24T12:07:00;98310.41;;;30.12;29.60
46392;BME280;32098;49.448;7.904;2022-07-24T12:09:26;98329.50;;;30.68;29.42
46392;BME280;32098;49.448;7.904;2022-07-24T12:11:55;98326.81;;;31.06;27.79
46392;BME280;32098;49.448;7.904;2022-07-24T12:14:22;98310.63;;;31.24;27.67
46392;BME280;32098;49.448;7.904;2022-07-24T12:16:54;98318.25;;;31.49;27.55
46392;BME280;32098;49.448;7.904;2022-07-24T12:19:24;98318.09;;;31.42;27.80
46392;BME280;32098;49.448;7.904;2022-07-24T12:21:52;98314.91;;;31.40;27.38
46392;BME280;32098;49.448;7.904;2022-07-24T12:24:20;98320.72;;;31.35;27.28
46392;BME280;32098;49.448;7.904;2022-07-24T12:29:18;98314.22;;;30.89;27.23
46392;BME280;32098;49.448;7.904;2022-07-24T12:31:44;98289.69;;;30.34;27.29
46392;BME280;32098;49.448;7.904;2022-07-24T12:34:11;98307.38;;;30.17;28.19
46392;BME280;32098;49.448;7.904;2022-07-24T12:36:38;98298.41;;;30.05;28.27
46392;BME280;32098;49.448;7.904;2022-07-24T12:39:06;98290.69;;;30.10;28.44
46392;BME280;32098;49.448;7.904;2022-07-24T12:41:44;98298.28;;;29.70;28.30
46392;BME280;32098;49.448;7.904;2022-07-24T12:44:15;98291.88;;;29.66;28.19
46392;BME280;32098;49.448;7.904;2022-07-24T12:46:43;98289.50;;;29.80;28.62
46392;BME280;32098;49.448;7.904;2022-07-24T12:49:16;98274.91;;;29.79;28.80
46392;BME280;32098;49.448;7.904;2022-07-24T12:51:59;98282.41;;;30.10;28.27
46392;BME280;32098;49.448;7.904;2022-07-24T12:54:26;98278.13;;;29.97;29.21
46392;BME280;32098;49.448;7.904;2022-07-24T12:56:58;98271.91;;;29.84;27.08
46392;BME280;32098;49.448;7.904;2022-07-24T13:01:56;98271.66;;;29.74;27.66
46392;BME280;32098;49.448;7.904;2022-07-24T13:04:24;98252.72;;;29.57;28.49
46392;BME280;32098;49.448;7.904;2022-07-24T13:06:53;98263.84;;;29.76;28.41
46392;BME280;32098;49.448;7.904;2022-07-24T13:09:21;98255.03;;;30.02;27.84
46392;BME280;32098;49.448;7.904;2022-07-24T13:11:50;98256.38;;;30.23;28.32
46392;BME280;32098;49.448;7.904;2022-07-24T13:14:18;98263.09;;;30.41;27.49
46392;BME280;32098;49.448;7.904;2022-07-24T13:16:48;98254.31;;;30.71;28.08
46392;BME280;32098;49.448;7.904;2022-07-24T13:19:15;98254.50;;;30.97;27.68
46392;BME280;32098;49.448;7.904;2022-07-24T13:21:44;98246.91;;;31.09;27.12
46392;BME280;32098;49.448;7.904;2022-07-24T13:24:12;98240.91;;;31.27;26.76
46392;BME280;32098;49.448;7.904;2022-07-24T13:26:41;98234.69;;;31.52;26.47
46392;BME280;32098;49.448;7.904;2022-07-24T13:29:08;98237.34;;;31.68;26.54
46392;BME280;32098;49.448;7.904;2022-07-24T13:31:35;98236.94;;;31.89;26.37
46392;BME280;32098;49.448;7.904;2022-07-24T13:34:02;98227.03;;;32.10;26.00
46392;BME280;32098;49.448;7.904;2022-07-24T13:36:29;98226.88;;;32.26;25.59